Time;durP1;ratioP1;P1;durP2;ratioP2;P2;SDS_P1;SDS_P2;PMS_P1;PMS_P2;Temp;Humidity;BMP_temperature;BMP_pressure;BME280_temperature;BME280_humidity;BME280_pressure;Samples;Min_cycle;Max_cycle;Signal;HPM_P1;HPM_P2
2023/06/19 00:00:23;;;;;;;;;;;;;;;21.01;88.87;100744.16;4981180;28;19921;-72
2023/06/19 00:02:48;;;;;;;;;;;;;;;21.03;89.07;100752.16;4977858;28;20366;-75
2023/06/19 00:05:14;;;;;;;;;;;;;;;21.05;89.03;100748.19;4979501;28;19970;-71
2023/06/19 00:07:39;;;;;;;;;;;;;;;21.24;87.97;100748.59;4975364;28;20020;-76
2023/06/19 00:10:05;;;;;;;;;;;;;;;21.26;87.29;100757.44;4980349;28;19926;-74
2023/06/19 00:12:30;;;;;;;;;;;;;;;21.31;87.18;100762.34;4978886;28;19960;-71
2023/06/19 00:14:55;;;;;;;;;;;;;;;21.40;86.03;100774.84;4980691;28;20024;-73
2023/06/19 00:17:20;;;;;;;;;;;;;;;21.43;86.39;100774.44;4975962;28;19929;-74
2023/06/19 00:19:46;;;;;;;;;;;;;;;21.45;85.72;100779.75;4977820;28;19921;-74
2023/06/19 00:22:12;;;;;;;;;;;;;;;21.53;84.86;100779.59;4976926;28;19922;-74
2023/06/19 00:24:37;;;;;;;;;;;;;;;21.57;84.27;100780.91;4979780;28;20004;-76
2023/06/19 00:27:02;;;;;;;;;;;;;;;21.64;83.58;100784.59;4978115;28;19961;-76
2023/06/19 00:29:31;;;;;;;;;;;;;;;21.72;82.94;100789.09;4959596;28;20034;-76
2023/06/19 00:31:57;;;;;;;;;;;;;;;21.68;83.72;100795.97;4977621;28;19925;-72
2023/06/19 00:34:24;;;;;;;;;;;;;;;21.74;82.46;100808.84;4973983;28;19922;-77
2023/06/19 00:36:49;;;;;;;;;;;;;;;21.68;83.07;100807.75;4975992;28;19921;-77
2023/06/19 00:39:15;;;;;;;;;;;;;;;21.63;83.92;100809.34;4978781;28;19929;-73
2023/06/19 00:41:40;;;;;;;;;;;;;;;21.61;85.06;100808.66;4978739;28;20436;-73
2023/06/19 00:44:05;;;;;;;;;;;;;;;21.58;84.68;100807.19;4971885;28;19961;-72
2023/06/19 00:46:30;;;;;;;;;;;;;;;21.56;84.39;100817.44;4977909;28;19921;-73
2023/06/19 00:48:56;;;;;;;;;;;;;;;21.58;84.74;100826.31;4979434;28;19918;-75
2023/06/19 00:51:21;;;;;;;;;;;;;;;21.48;85.74;100834.81;4977408;28;20055;-70
2023/06/19 00:53:46;;;;;;;;;;;;;;;21.51;86.34;100819.91;4980954;28;19998;-72
2023/06/19 00:56:12;;;;;;;;;;;;;;;21.50;85.78;100818.22;4977370;28;20391;-74
2023/06/19 00:58:37;;;;;;;;;;;;;;;21.50;85.47;100823.69;4959736;28;19933;-76
2023/06/19 01:01:02;;;;;;;;;;;;;;;21.38;85.68;100826.94;4960804;28;19922;-75
2023/06/19 01:03:28;;;;;;;;;;;;;;;21.34;86.44;100825.63;4975078;28;20387;-73
2023/06/19 01:05:54;;;;;;;;;;;;;;;21.23;87.49;100820.63;4969227;28;20335;-73
2023/06/19 01:08:19;;;;;;;;;;;;;;;;;;4945523;28;19922;-73
2023/06/19 01:10:47;;;;;;;;;;;;;;;21.10;87.66;100830.34;4966083;28;19921;-72
2023/06/19 01:13:22;;;;;;;;;;;;;;;21.05;87.39;100837.44;4966242;28;19922;-73
2023/06/19 01:15:47;;;;;;;;;;;;;;;21.01;88.00;100839.66;4969890;28;19976;-74
2023/06/19 01:18:12;;;;;;;;;;;;;;;20.85;88.88;100843.44;4970505;28;20452;-73
2023/06/19 01:20:38;;;;;;;;;;;;;;;20.81;89.31;100839.38;4972893;28;19928;-71
2023/06/19 01:23:06;;;;;;;;;;;;;;;20.73;90.15;100843.00;4955833;28;19926;-71
2023/06/19 01:25:31;;;;;;;;;;;;;;;20.61;91.40;100839.91;4975015;28;20445;-71
2023/06/19 01:27:56;;;;;;;;;;;;;;;20.51;92.64;100842.91;4971507;28;19932;-71
2023/06/19 01:30:21;;;;;;;;;;;;;;;20.62;91.97;100846.22;4982158;28;19922;-72
2023/06/19 01:33:06;;;;;;;;;;;;;;;20.56;92.75;100839.59;4972064;28;19922;-72
2023/06/19 01:35:33;;;;;;;;;;;;;;;20.39;94.65;100849.84;4967923;28;19922;-71
2023/06/19 01:37:59;;;;;;;;;;;;;;;20.27;96.51;100851.31;4967840;28;19926;-71
2023/06/19 01:40:25;;;;;;;;;;;;;;;20.36;95.50;100845.59;4968038;28;19922;-72
2023/06/19 01:42:51;;;;;;;;;;;;;;;20.28;96.18;100853.81;4972176;28;19922;-73
2023/06/19 01:45:16;;;;;;;;;;;;;;;20.25;96.95;100850.63;4958530;28;19969;-71
2023/06/19 01:47:42;;;;;;;;;;;;;;;20.30;97.02;100845.47;4969126;28;20363;-72
2023/06/19 01:50:07;;;;;;;;;;;;;;;20.23;98.00;100854.38;4965390;28;19995;-73
2023/06/19 01:52:32;;;;;;;;;;;;;;;20.13;99.87;100855.66;4973497;28;20034;-72
2023/06/19 01:54:58;;;;;;;;;;;;;;;20.21;100.00;100858.34;4969080;28;19922;-73
2023/06/19 01:57:23;;;;;;;;;;;;;;;20.15;100.00;100859.91;4968771;28;19926;-72
2023/06/19 01:59:48;;;;;;;;;;;;;;;20.04;100.00;100872.06;4964155;28;19937;-75
2023/06/19 02:02:13;;;;;;;;;;;;;;;20.05;100.00;100865.59;4972530;28;19949;-72
2023/06/19 02:04:39;;;;;;;;;;;;;;;19.87;100.00;100867.75;4951898;28;20292;-72
2023/06/19 02:07:04;;;;;;;;;;;;;;;19.75;100.00;100876.31;4964890;28;20367;-78
2023/06/19 02:09:29;;;;;;;;;;;;;;;19.66;100.00;100874.69;4963494;28;20338;-74
2023/06/19 02:11:54;;;;;;;;;;;;;;;19.66;100.00;100873.81;4968700;28;19922;-74
2023/06/19 02:14:19;;;;;;;;;;;;;;;19.61;100.00;100877.91;4967516;28;19921;-71
2023/06/19 02:16:45;;;;;;;;;;;;;;;19.59;100.00;100880.00;4970116;28;19921;-75
2023/06/19 02:19:10;;;;;;;;;;;;;;;19.60;100.00;100880.84;4964191;28;20202;-73
2023/06/19 02:21:36;;;;;;;;;;;;;;;19.54;100.00;100878.81;4953735;28;20330;-73
2023/06/19 02:24:01;;;;;;;;;;;;;;;19.38;100.00;100880.59;4966093;28;20272;-74
2023/06/19 02:26:28;;;;;;;;;;;;;;;19.40;100.00;100880.41;4950912;28;20392;-76
2023/06/19 02:28:54;;;;;;;;;;;;;;;19.44;100.00;100881.75;4966091;28;20603;-77
2023/06/19 02:31:19;;;;;;;;;;;;;;;19.38;100.00;100890.63;4970288;28;19922;-74
2023/06/19 02:33:44;;;;;;;;;;;;;;;19.31;100.00;100888.63;4958434;28;19922;-74
2023/06/19 02:36:10;;;;;;;;;;;;;;;19.34;100.00;100892.88;4967228;28;20456;-74
2023/06/19 02:38:36;;;;;;;;;;;;;;;19.26;100.00;100898.34;4963924;28;19926;-74
2023/06/19 02:41:01;;;;;;;;;;;;;;;19.26;100.00;100896.47;4964668;28;19929;-75
2023/06/19 02:43:26;;;;;;;;;;;;;;;19.26;100.00;100910.09;4951580;28;20140;-73
2023/06/19 02:45:51;;;;;;;;;;;;;;;19.27;100.00;100909.06;4946590;28;19965;-74
2023/06/19 02:48:17;;;;;;;;;;;;;;;19.38;100.00;100918.72;4950206;28;20040;-71
2023/06/19 02:50:42;;;;;;;;;;;;;;;19.28;100.00;100908.03;4964744;28;19928;-72
2023/06/19 02:53:08;;;;;;;;;;;;;;;19.31;100.00;100913.13;4972122;28;19963;-77
2023/06/19 02:55:33;;;;;;;;;;;;;;;19.31;100.00;100915.84;4962570;28;20328;-72
2023/06/19 02:57:59;;;;;;;;;;;;;;;19.27;100.00;100930.84;4967940;28;19992;-71
2023/06/19 03:00:27;;;;;;;;;;;;;;;19.25;100.00;100932.00;4957149;28;19981;-73
2023/06/19 03:02:53;;;;;;;;;;;;;;;19.18;100.00;100924.56;4968242;28;19922;-73
2023/06/19 03:05:18;;;;;;;;;;;;;;;19.09;100.00;100922.03;4954528;28;20059;-75
2023/06/19 03:07:43;;;;;;;;;;;;;;;18.91;100.00;100914.91;4969446;28;19930;-75
2023/06/19 03:10:09;;;;;;;;;;;;;;;18.99;100.00;100909.47;4969757;28;19952;-75
2023/06/19 03:12:34;;;;;;;;;;;;;;;18.83;100.00;100917.63;4968887;28;20065;-73
2023/06/19 03:14:59;;;;;;;;;;;;;;;18.76;100.00;100922.06;4966632;28;19930;-71
2023/06/19 03:17:24;;;;;;;;;;;;;;;18.62;100.00;100929.03;4963254;28;19925;-76
2023/06/19 03:19:49;;;;;;;;;;;;;;;18.56;100.00;100931.41;4972858;28;19922;-79
2023/06/19 03:22:15;;;;;;;;;;;;;;;18.44;100.00;100927.31;4959038;28;20210;-73
2023/06/19 03:24:40;;;;;;;;;;;;;;;18.38;100.00;100931.56;4955527;28;19936;-72
2023/06/19 03:27:05;;;;;;;;;;;;;;;18.26;100.00;100933.78;4968449;28;19952;-71
2023/06/19 03:29:30;;;;;;;;;;;;;;;18.11;100.00;100930.88;4973458;28;19921;-71
2023/06/19 03:31:56;;;;;;;;;;;;;;;18.07;100.00;100934.09;4976929;28;19950;-73
2023/06/19 03:34:21;;;;;;;;;;;;;;;18.13;100.00;100936.97;4968851;28;20020;-72
2023/06/19 03:36:46;;;;;;;;;;;;;;;18.11;100.00;100933.59;4973747;28;19925;-71
2023/06/19 03:39:11;;;;;;;;;;;;;;;18.07;100.00;100943.06;4973219;28;19960;-71
2023/06/19 03:41:36;;;;;;;;;;;;;;;18.06;100.00;100941.38;4974067;28;20529;-70
2023/06/19 03:44:02;;;;;;;;;;;;;;;17.98;100.00;100944.06;4973673;28;19922;-71
2023/06/19 03:46:27;;;;;;;;;;;;;;;17.99;100.00;100953.94;4969381;28;19980;-75
2023/06/19 03:48:53;;;;;;;;;;;;;;;18.01;100.00;100951.06;4968761;28;19922;-72
2023/06/19 03:51:18;;;;;;;;;;;;;;;18.03;100.00;100951.75;4969559;28;19922;-71
2023/06/19 03:53:44;;;;;;;;;;;;;;;18.11;100.00;100959.91;4953633;28;19926;-71
2023/06/19 03:56:09;;;;;;;;;;;;;;;18.04;100.00;100958.88;4952977;28;19929;-70
2023/06/19 03:58:34;;;;;;;;;;;;;;;18.08;100.00;100968.41;4965395;28;19969;-71
2023/06/19 04:00:59;;;;;;;;;;;;;;;18.04;100.00;100967.03;4971771;28;19928;-75
2023/06/19 04:03:24;;;;;;;;;;;;;;;18.07;100.00;100967.53;4965021;28;20049;-72
2023/06/19 04:05:50;;;;;;;;;;;;;;;18.09;100.00;100970.94;4966778;28;20016;-70
2023/06/19 04:08:15;;;;;;;;;;;;;;;18.30;100.00;100969.59;4968001;28;19949;-74
2023/06/19 04:10:41;;;;;;;;;;;;;;;18.31;100.00;100970.47;4969214;28;19921;-71
2023/06/19 04:13:06;;;;;;;;;;;;;;;18.20;100.00;100977.09;4956020;28;19922;-72
2023/06/19 04:15:32;;;;;;;;;;;;;;;18.16;100.00;100978.44;4955742;28;19926;-72
2023/06/19 04:17:57;;;;;;;;;;;;;;;18.17;100.00;100991.84;4967345;28;19926;-74
2023/06/19 04:20:22;;;;;;;;;;;;;;;18.26;100.00;100984.56;4954328;28;20016;-72
2023/06/19 04:22:48;;;;;;;;;;;;;;;18.21;100.00;100986.94;4966658;28;19933;-71
2023/06/19 04:25:13;;;;;;;;;;;;;;;18.22;100.00;100991.34;4970555;28;19922;-72
2023/06/19 04:27:38;;;;;;;;;;;;;;;18.37;100.00;100992.38;4968014;28;19972;-72
2023/06/19 04:30:06;;;;;;;;;;;;;;;18.26;100.00;100993.56;4968873;28;20040;-75
2023/06/19 04:32:31;;;;;;;;;;;;;;;18.34;100.00;100997.31;4964441;28;19922;-70
2023/06/19 04:34:57;;;;;;;;;;;;;;;18.37;100.00;100991.56;4968297;28;19928;-72
2023/06/19 04:37:22;;;;;;;;;;;;;;;18.39;100.00;101001.22;4966956;28;20506;-74
2023/06/19 04:39:47;;;;;;;;;;;;;;;18.36;100.00;101009.72;4962251;28;19921;-70
2023/06/19 04:42:13;;;;;;;;;;;;;;;18.35;100.00;101009.91;4968719;28;19922;-75
2023/06/19 04:44:38;;;;;;;;;;;;;;;18.41;100.00;101012.78;4945734;28;19921;-78
2023/06/19 04:47:03;;;;;;;;;;;;;;;18.45;100.00;101010.56;4969853;28;21515;-71
2023/06/19 04:49:30;;;;;;;;;;;;;;;18.51;100.00;101011.78;4967494;28;19961;-71
2023/06/19 04:51:55;;;;;;;;;;;;;;;18.52;100.00;101024.38;4966976;28;19922;-74
2023/06/19 04:54:20;;;;;;;;;;;;;;;18.62;100.00;101019.59;4947567;28;19929;-73
2023/06/19 04:56:46;;;;;;;;;;;;;;;18.64;100.00;101016.75;4965866;28;20371;-72
2023/06/19 04:59:11;;;;;;;;;;;;;;;18.64;100.00;101025.72;4968405;28;20412;-73
2023/06/19 05:01:40;;;;;;;;;;;;;;;18.58;100.00;101023.69;4969593;28;19989;-73
2023/06/19 05:04:05;;;;;;;;;;;;;;;18.64;100.00;101025.72;4965531;28;19933;-69
2023/06/19 05:06:30;;;;;;;;;;;;;;;18.72;100.00;101025.75;4970686;28;20285;-74
2023/06/19 05:08:55;;;;;;;;;;;;;;;18.70;100.00;101025.06;4962943;28;19953;-71
2023/06/19 05:11:21;;;;;;;;;;;;;;;18.75;100.00;101030.00;4963065;28;19969;-73
2023/06/19 05:13:46;;;;;;;;;;;;;;;18.76;100.00;101030.84;4967031;28;20012;-71
2023/06/19 05:16:15;;;;;;;;;;;;;;;18.88;100.00;101033.06;4965372;28;19933;-72
2023/06/19 05:18:41;;;;;;;;;;;;;;;18.93;100.00;101032.56;4963678;28;20392;-73
2023/06/19 05:21:06;;;;;;;;;;;;;;;18.82;100.00;101036.47;4952773;28;20017;-73
2023/06/19 05:23:31;;;;;;;;;;;;;;;18.85;100.00;101036.13;4949485;28;20105;-71
2023/06/19 05:25:56;;;;;;;;;;;;;;;18.80;100.00;101033.06;4971601;28;19922;-70
2023/06/19 05:28:22;;;;;;;;;;;;;;;18.80;100.00;101033.06;4967562;28;20037;-71
2023/06/19 05:30:47;;;;;;;;;;;;;;;18.94;100.00;101036.09;4975089;28;19929;-71
2023/06/19 05:33:15;;;;;;;;;;;;;;;18.96;100.00;101024.09;4967833;28;19965;-72
2023/06/19 05:35:41;;;;;;;;;;;;;;;18.93;100.00;101034.44;4963893;28;19930;-71
2023/06/19 05:38:06;;;;;;;;;;;;;;;18.89;100.00;101037.50;4974672;28;19933;-72
2023/06/19 05:40:31;;;;;;;;;;;;;;;18.94;100.00;101034.25;4969139;28;19997;-74
2023/06/19 05:42:56;;;;;;;;;;;;;;;19.03;100.00;101040.56;4970811;28;20258;-72
2023/06/19 05:45:22;;;;;;;;;;;;;;;19.01;100.00;101046.19;4966810;28;19949;-71
2023/06/19 05:47:47;;;;;;;;;;;;;;;18.94;100.00;101047.00;4971508;28;19921;-73
2023/06/19 05:50:12;;;;;;;;;;;;;;;19.05;100.00;101054.03;4970117;28;19932;-72
2023/06/19 05:52:41;;;;;;;;;;;;;;;18.99;100.00;101048.22;4964728;28;19928;-72
2023/06/19 05:55:06;;;;;;;;;;;;;;;18.95;100.00;101048.69;4969902;28;19961;-72
2023/06/19 05:57:33;;;;;;;;;;;;;;;18.84;100.00;101058.91;4968470;28;20374;-76
2023/06/19 05:59:58;;;;;;;;;;;;;;;18.87;100.00;101052.25;4964507;28;19926;-73
2023/06/19 06:02:23;;;;;;;;;;;;;;;18.91;100.00;101061.78;4966384;28;19929;-71
2023/06/19 06:04:48;;;;;;;;;;;;;;;18.95;100.00;101055.03;4970278;28;19921;-72
2023/06/19 06:07:14;;;;;;;;;;;;;;;18.88;100.00;101064.84;4969378;28;20340;-73
2023/06/19 06:09:39;;;;;;;;;;;;;;;18.92;100.00;101060.78;4959991;28;19922;-72
2023/06/19 06:12:04;;;;;;;;;;;;;;;18.97;100.00;101071.16;4971574;28;19932;-71
2023/06/19 06:14:29;;;;;;;;;;;;;;;19.01;100.00;101062.53;4973265;28;19929;-71
2023/06/19 06:16:55;;;;;;;;;;;;;;;18.99;100.00;101077.28;4970816;28;21948;-77
2023/06/19 06:19:22;;;;;;;;;;;;;;;18.96;100.00;101053.16;4969950;28;20650;-72
2023/06/19 06:21:47;;;;;;;;;;;;;;;19.23;100.00;101081.03;4972175;28;19918;-74
2023/06/19 06:24:12;;;;;;;;;;;;;;;19.26;100.00;101084.28;4972278;28;20288;-70
2023/06/19 06:26:38;;;;;;;;;;;;;;;19.35;100.00;101082.41;4968127;28;19926;-71
2023/06/19 06:29:03;;;;;;;;;;;;;;;19.53;100.00;101087.66;4973758;28;19922;-71
2023/06/19 06:31:28;;;;;;;;;;;;;;;19.74;100.00;101091.69;4971054;28;19964;-71
2023/06/19 06:33:53;;;;;;;;;;;;;;;19.89;100.00;101089.97;4973511;28;19949;-71
2023/06/19 06:36:19;;;;;;;;;;;;;;;20.07;100.00;101097.09;4978217;28;20052;-72
2023/06/19 06:38:44;;;;;;;;;;;;;;;20.20;100.00;101091.06;4971537;28;19981;-72
2023/06/19 06:41:09;;;;;;;;;;;;;;;20.34;100.00;101090.31;4967591;28;19929;-73
2023/06/19 06:43:34;;;;;;;;;;;;;;;20.58;100.00;101095.81;4969804;28;19991;-74
2023/06/19 06:46:00;;;;;;;;;;;;;;;20.27;100.00;101100.22;4974073;28;19929;-71
2023/06/19 06:48:25;;;;;;;;;;;;;;;20.22;100.00;101110.81;4977363;28;19953;-71
2023/06/19 06:50:51;;;;;;;;;;;;;;;20.16;100.00;101112.34;4977292;28;19921;-73
2023/06/19 06:53:16;;;;;;;;;;;;;;;20.29;100.00;101110.97;4972028;28;19922;-73
2023/06/19 06:55:41;;;;;;;;;;;;;;;20.43;100.00;101109.34;4972606;28;19922;-73
2023/06/19 06:58:06;;;;;;;;;;;;;;;20.50;100.00;101113.91;4968632;28;20340;-73
2023/06/19 07:00:31;;;;;;;;;;;;;;;20.59;100.00;101130.25;4972646;28;20577;-72
2023/06/19 07:02:57;;;;;;;;;;;;;;;20.53;100.00;101129.06;4971539;28;20032;-72
2023/06/19 07:05:22;;;;;;;;;;;;;;;20.41;100.00;101133.22;4967954;28;19981;-71
2023/06/19 07:07:47;;;;;;;;;;;;;;;20.33;100.00;101132.22;4977070;28;20048;-72
2023/06/19 07:10:12;;;;;;;;;;;;;;;20.41;100.00;101133.22;4975250;28;20002;-73
2023/06/19 07:12:44;;;;;;;;;;;;;;;20.63;100.00;101143.34;4970663;28;20097;-71
2023/06/19 07:15:10;;;;;;;;;;;;;;;20.80;100.00;101130.47;4979740;28;20217;-71
2023/06/19 07:17:35;;;;;;;;;;;;;;;21.02;100.00;101138.03;4985141;28;19921;-71
2023/06/19 07:20:00;;;;;;;;;;;;;;;21.19;100.00;101145.06;4972957;28;20396;-72
2023/06/19 07:22:25;;;;;;;;;;;;;;;21.20;100.00;101151.34;4981509;28;20503;-73
2023/06/19 07:24:50;;;;;;;;;;;;;;;21.18;100.00;101151.53;4975598;28;20360;-71
2023/06/19 07:27:16;;;;;;;;;;;;;;;21.18;100.00;101143.34;4972826;28;20474;-71
2023/06/19 07:29:41;;;;;;;;;;;;;;;21.28;100.00;101152.16;4971379;28;20373;-71
2023/06/19 07:32:06;;;;;;;;;;;;;;;21.54;100.00;101140.00;4966234;28;19922;-77
2023/06/19 07:34:32;;;;;;;;;;;;;;;21.32;100.00;101163.56;4975774;28;19988;-73
2023/06/19 07:36:57;;;;;;;;;;;;;;;21.38;100.00;101160.09;4969521;28;20300;-74
2023/06/19 07:39:22;;;;;;;;;;;;;;;21.42;100.00;101163.31;4970070;28;20217;-73
2023/06/19 07:41:48;;;;;;;;;;;;;;;21.76;100.00;101161.16;4965600;28;20185;-71
2023/06/19 07:44:13;;;;;;;;;;;;;;;22.08;100.00;101165.44;4966105;28;19946;-71
2023/06/19 07:46:38;;;;;;;;;;;;;;;22.27;100.00;101163.16;4991969;28;20029;-70
2023/06/19 07:49:03;;;;;;;;;;;;;;;22.25;100.00;101165.25;4968642;28;20499;-71
2023/06/19 07:51:29;;;;;;;;;;;;;;;22.17;100.00;101177.13;4971666;28;20415;-71
2023/06/19 07:53:54;;;;;;;;;;;;;;;22.15;100.00;101179.19;4974636;28;19964;-72
2023/06/19 07:56:19;;;;;;;;;;;;;;;22.01;100.00;101176.25;4968113;28;20226;-70
2023/06/19 07:58:44;;;;;;;;;;;;;;;22.18;100.00;101174.19;4970463;28;19926;-72
2023/06/19 08:01:10;;;;;;;;;;;;;;;22.14;100.00;101183.81;4971759;28;20394;-71
2023/06/19 08:03:35;;;;;;;;;;;;;;;22.35;100.00;101176.75;4969822;28;20297;-76
2023/06/19 08:06:00;;;;;;;;;;;;;;;22.28;100.00;101176.63;4971505;28;19922;-71
2023/06/19 08:08:26;;;;;;;;;;;;;;;22.33;100.00;101181.56;4975564;28;20041;-72
2023/06/19 08:10:51;;;;;;;;;;;;;;;22.32;100.00;101182.59;4956675;28;20016;-72
2023/06/19 08:13:17;;;;;;;;;;;;;;;22.24;100.00;101177.22;4968240;28;19925;-71
2023/06/19 08:15:44;;;;;;;;;;;;;;;22.30;99.73;101179.19;4975720;28;19928;-73
2023/06/19 08:18:09;;;;;;;;;;;;;;;22.24;100.00;101180.81;4966439;28;20165;-74
2023/06/19 08:20:34;;;;;;;;;;;;;;;22.40;100.00;101178.91;4972888;28;20367;-71
2023/06/19 08:23:00;;;;;;;;;;;;;;;22.65;99.76;101179.47;4970753;28;19968;-71
2023/06/19 08:25:25;;;;;;;;;;;;;;;22.89;99.63;101172.81;4966209;28;20012;-73
2023/06/19 08:27:50;;;;;;;;;;;;;;;23.16;97.69;101181.31;4973360;28;19921;-72
2023/06/19 08:30:15;;;;;;;;;;;;;;;23.30;100.00;101184.22;4970823;28;19921;-76
2023/06/19 08:32:42;;;;;;;;;;;;;;;23.35;96.59;101184.47;4968293;28;19957;-72
2023/06/19 08:35:07;;;;;;;;;;;;;;;23.21;95.88;101192.56;4968527;28;20052;-70
2023/06/19 08:37:33;;;;;;;;;;;;;;;23.21;97.69;101192.56;4965906;28;19922;-73
2023/06/19 08:39:59;;;;;;;;;;;;;;;23.31;93.03;101188.63;4966053;28;20272;-73
2023/06/19 08:42:24;;;;;;;;;;;;;;;23.29;89.18;101191.56;4964007;28;20475;-78
2023/06/19 08:44:49;;;;;;;;;;;;;;;23.32;90.99;101180.22;4970293;28;19921;-76
2023/06/19 08:47:15;;;;;;;;;;;;;;;23.35;89.24;101187.19;4990494;28;19937;-74
2023/06/19 08:49:40;;;;;;;;;;;;;;;23.57;88.76;101181.72;4974333;28;19921;-79
2023/06/19 08:52:06;;;;;;;;;;;;;;;23.68;85.67;101189.41;4960722;28;19930;-73
2023/06/19 08:54:31;;;;;;;;;;;;;;;23.73;85.60;101192.41;4970791;28;19921;-72
2023/06/19 08:57:00;;;;;;;;;;;;;;;23.91;82.46;101199.28;4967994;28;19925;-77
2023/06/19 08:59:25;;;;;;;;;;;;;;;23.75;81.96;101201.28;4955820;28;20016;-73
2023/06/19 09:01:53;;;;;;;;;;;;;;;23.66;84.48;101199.72;4969829;28;19928;-73
2023/06/19 09:04:19;;;;;;;;;;;;;;;23.82;83.98;101204.06;4972495;28;19922;-71
2023/06/19 09:06:48;;;;;;;;;;;;;;;23.94;82.62;101209.84;4965992;28;19926;-74
2023/06/19 09:09:17;;;;;;;;;;;;;;;24.10;82.12;101214.22;4969237;28;20041;-73
2023/06/19 09:11:45;;;;;;;;;;;;;;;24.15;81.35;101208.97;4967146;28;19922;-72
2023/06/19 09:14:10;;;;;;;;;;;;;;;23.98;84.50;101175.53;4965542;28;20431;-75
2023/06/19 09:16:37;;;;;;;;;;;;;;;23.64;80.02;101215.50;4973534;28;20439;-74
2023/06/19 09:19:02;;;;;;;;;;;;;;;23.12;87.40;101232.03;4970442;28;19930;-74
2023/06/19 09:21:28;;;;;;;;;;;;;;;22.84;90.27;101240.13;4966866;28;19976;-73
2023/06/19 09:23:53;;;;;;;;;;;;;;;23.31;84.57;101232.47;4964578;28;19921;-73
2023/06/19 09:26:20;;;;;;;;;;;;;;;23.62;81.42;101226.69;4968288;28;20353;-74
2023/06/19 09:28:45;;;;;;;;;;;;;;;23.76;81.09;101227.63;4970354;28;19926;-73
2023/06/19 09:31:10;;;;;;;;;;;;;;;23.94;80.21;101227.16;4974536;28;20328;-74
2023/06/19 09:33:36;;;;;;;;;;;;;;;24.04;84.43;101243.28;4970245;28;19949;-73
2023/06/19 09:36:02;;;;;;;;;;;;;;;23.92;80.58;101232.00;4971950;28;19922;-72
2023/06/19 09:38:28;;;;;;;;;;;;;;;23.97;78.69;101236.88;4972051;28;19933;-74
2023/06/19 09:40:53;;;;;;;;;;;;;;;24.25;77.23;101239.63;4969355;28;19968;-72
2023/06/19 09:43:21;;;;;;;;;;;;;;;24.26;79.44;101248.72;4969459;28;20432;-74
2023/06/19 09:45:50;;;;;;;;;;;;;;;23.94;81.95;101251.84;4970967;28;20339;-78
2023/06/19 09:48:16;;;;;;;;;;;;;;;23.64;81.03;101238.28;4967414;28;19926;-74
2023/06/19 09:50:42;;;;;;;;;;;;;;;24.04;83.19;101247.91;4968167;28;19921;-71
2023/06/19 09:53:07;;;;;;;;;;;;;;;24.35;78.45;101247.50;4962738;28;20435;-73
2023/06/19 09:55:32;;;;;;;;;;;;;;;24.73;75.11;101254.50;4970268;28;20426;-73
2023/06/19 09:57:58;;;;;;;;;;;;;;;24.77;75.39;101254.94;4971106;28;20455;-74
2023/06/19 10:00:26;;;;;;;;;;;;;;;24.88;75.11;101259.00;4969888;28;19926;-73
2023/06/19 10:02:51;;;;;;;;;;;;;;;24.45;72.45;101262.75;4968558;28;19972;-73
2023/06/19 10:05:18;;;;;;;;;;;;;;;24.62;66.90;101261.41;4972416;28;20533;-72
2023/06/19 10:07:45;;;;;;;;;;;;;;;24.83;71.16;101260.44;4970992;28;20244;-77
2023/06/19 10:10:26;;;;;;;;;;;;;;;25.14;68.55;101250.84;4972764;28;20381;-73
2023/06/19 10:12:54;;;;;;;;;;;;;;;25.33;70.39;101255.75;4968323;28;20280;-75
2023/06/19 10:15:20;;;;;;;;;;;;;;;25.47;64.48;101256.66;4973432;28;19929;-73
2023/06/19 10:17:53;;;;;;;;;;;;;;;25.50;74.78;101261.75;4970378;28;19922;-73
2023/06/19 10:20:27;;;;;;;;;;;;;;;24.57;69.05;101250.16;4977689;28;20429;-74
2023/06/19 10:22:56;;;;;;;;;;;;;;;24.70;69.47;101249.38;4969207;28;19925;-74
2023/06/19 10:25:22;;;;;;;;;;;;;;;24.85;68.31;101263.00;4977424;28;19921;-77
2023/06/19 10:27:47;;;;;;;;;;;;;;;25.15;69.52;101265.44;4974967;28;20626;-76
2023/06/19 10:30:19;;;;;;;;;;;;;;;25.28;66.46;101254.47;4969355;28;20455;-71
2023/06/19 10:32:45;;;;;;;;;;;;;;;25.04;63.76;101264.13;4968924;28;19965;-74
2023/06/19 10:35:10;;;;;;;;;;;;;;;24.80;63.55;101268.25;4967877;28;19929;-71
2023/06/19 10:37:35;;;;;;;;;;;;;;;25.10;65.87;101270.72;4989361;28;19972;-76
2023/06/19 10:40:01;;;;;;;;;;;;;;;25.47;61.05;101265.75;4975594;28;20012;-72
2023/06/19 10:42:26;;;;;;;;;;;;;;;25.78;60.93;101255.22;4972696;28;19922;-72
2023/06/19 10:44:51;;;;;;;;;;;;;;;26.00;63.61;101264.09;4971712;28;19932;-71
2023/06/19 10:47:16;;;;;;;;;;;;;;;26.09;59.44;101259.25;4977736;28;19922;-73
2023/06/19 10:49:42;;;;;;;;;;;;;;;25.96;60.21;101258.19;4976310;28;19921;-71
2023/06/19 10:52:07;;;;;;;;;;;;;;;26.10;59.89;101256.25;4977166;28;19922;-74
2023/06/19 10:54:32;;;;;;;;;;;;;;;26.56;57.95;101251.75;4972518;28;19922;-71
2023/06/19 10:57:02;;;;;;;;;;;;;;;26.93;56.43;101254.00;4968587;28;19929;-71
2023/06/19 10:59:28;;;;;;;;;;;;;;;27.13;59.84;101248.38;4966247;28;19933;-71
2023/06/19 11:01:53;;;;;;;;;;;;;;;27.25;56.88;101241.09;4971961;28;19948;-70
2023/06/19 11:04:18;;;;;;;;;;;;;;;27.51;55.35;101244.75;4973885;28;19921;-71
2023/06/19 11:06:44;;;;;;;;;;;;;;;27.57;54.21;101245.78;4975865;28;20615;-71
2023/06/19 11:09:10;;;;;;;;;;;;;;;27.47;53.17;101246.28;4977308;28;20328;-71
2023/06/19 11:11:36;;;;;;;;;;;;;;;27.58;52.17;101246.63;4966649;28;20147;-73
2023/06/19 11:14:01;;;;;;;;;;;;;;;27.07;53.86;101244.56;4968703;28;20204;-71
2023/06/19 11:16:27;;;;;;;;;;;;;;;27.00;52.09;101256.69;4966246;28;19922;-70
2023/06/19 11:18:56;;;;;;;;;;;;;;;27.03;53.98;101248.84;4976622;28;20349;-71
2023/06/19 11:21:30;;;;;;;;;;;;;;;27.02;52.83;101252.66;4967696;28;19945;-74
2023/06/19 11:23:55;;;;;;;;;;;;;;;27.07;52.95;101250.09;4969960;28;20007;-71
2023/06/19 11:26:20;;;;;;;;;;;;;;;26.97;52.58;101221.31;4975616;28;20000;-72
2023/06/19 11:28:47;;;;;;;;;;;;;;;27.52;53.24;101246.47;4971108;28;20099;-70
2023/06/19 11:31:13;;;;;;;;;;;;;;;27.86;53.59;101234.31;4970401;28;20248;-73
2023/06/19 11:33:38;;;;;;;;;;;;;;;28.46;49.47;101244.78;4980947;28;19952;-72
2023/06/19 11:36:03;;;;;;;;;;;;;;;28.80;47.86;101241.66;4969252;28;19963;-71
2023/06/19 11:38:28;;;;;;;;;;;;;;;28.70;50.60;101243.03;4974438;28;19925;-71
2023/06/19 11:40:54;;;;;;;;;;;;;;;28.89;49.76;101241.09;4971837;28;19964;-73
2023/06/19 11:43:23;;;;;;;;;;;;;;;27.87;51.28;101230.50;4963038;28;20037;-73
2023/06/19 11:45:49;;;;;;;;;;;;;;;28.84;47.80;101245.63;4971416;28;20334;-73
2023/06/19 11:48:21;;;;;;;;;;;;;;;29.51;45.36;101241.97;4974761;28;20321;-73
2023/06/19 11:50:46;;;;;;;;;;;;;;;29.24;44.54;101234.06;4973309;28;20352;-73
2023/06/19 11:53:11;;;;;;;;;;;;;;;28.39;44.04;101230.19;4967580;28;20535;-75
2023/06/19 11:55:36;;;;;;;;;;;;;;;27.50;49.22;101225.69;4977263;28;19960;-74
2023/06/19 11:58:02;;;;;;;;;;;;;;;28.62;45.73;101220.38;4969783;28;19926;-73
2023/06/19 12:00:27;;;;;;;;;;;;;;;29.36;46.05;101220.28;4971177;28;19965;-71
2023/06/19 12:02:53;;;;;;;;;;;;;;;29.87;44.37;101220.72;4970343;28;20365;-71
2023/06/19 12:05:19;;;;;;;;;;;;;;;30.49;41.91;101224.91;4971120;28;19921;-71
2023/06/19 12:07:44;;;;;;;;;;;;;;;31.29;39.90;101226.22;4975139;28;20179;-73
2023/06/19 12:10:11;;;;;;;;;;;;;;;31.34;37.94;101229.09;4976080;28;20323;-71
2023/06/19 12:12:37;;;;;;;;;;;;;;;31.41;40.40;101224.25;4969299;28;19926;-73
2023/06/19 12:15:04;;;;;;;;;;;;;;;31.68;38.30;101215.25;4973432;28;20036;-71
2023/06/19 12:17:29;;;;;;;;;;;;;;;32.27;36.36;101216.72;4991473;28;20415;-73
2023/06/19 12:19:55;;;;;;;;;;;;;;;32.09;39.39;101213.13;4972913;28;19922;-71
2023/06/19 12:22:20;;;;;;;;;;;;;;;31.97;39.12;101207.69;4966971;28;19964;-71
2023/06/19 12:24:45;;;;;;;;;;;;;;;31.67;40.56;101203.31;4971165;28;19926;-71